Time;durP1;ratioP1;P1;durP2;ratioP2;P2;SDS_P1;SDS_P2;PMS_P1;PMS_P2;Temp;Humidity;BMP_temperature;BMP_pressure;BME280_temperature;BME280_humidity;BME280_pressure;Samples;Min_cycle;Max_cycle;Signal;HPM_P1;HPM_P2
2023/11/18 01:48:22;;;;;;;22.30;11.10;;;;;;;11.78;77.39;100809.04;106070;1257;60520;-84
2023/11/18 01:50:57;;;;;;;25.30;11.10;;;;;;;11.69;77.94;100807.80;106162;1256;60464;-84
2023/11/18 01:53:26;;;;;;;23.30;10.30;;;;;;;11.71;77.93;100814.48;106334;1256;74005;-84
2023/11/18 01:56:00;;;;;;;23.60;11.00;;;;;;;11.64;78.35;100812.91;106077;1257;69032;-84
2023/11/18 01:58:35;;;;;;;22.60;11.00;;;;;;;11.63;78.26;100815.21;106087;1260;71592;-83
2023/11/18 02:01:10;;;;;;;22.20;10.90;;;;;;;11.69;77.79;100813.56;106136;1254;60842;-84
2023/11/18 02:03:42;;;;;;;23.80;10.90;;;;;;;11.61;78.31;100818.77;105977;1258;60381;-84
2023/11/18 02:06:10;;;;;;;22.30;10.60;;;;;;;11.67;78.05;100815.76;106129;1259;73973;-84
2023/11/18 02:08:38;;;;;;;24.70;12.20;;;;;;;11.57;78.94;100820.65;106063;1257;68695;-84
2023/11/18 02:11:17;;;;;;;22.90;11.40;;;;;;;11.55;79.25;100818.02;106062;1256;72808;-83
2023/11/18 02:13:47;;;;;;;23.80;12.00;;;;;;;11.41;80.78;100819.59;106054;1257;60540;-83
2023/11/18 02:16:22;;;;;;;24.50;12.40;;;;;;;11.54;80.14;100822.19;106073;1256;60374;-83
2023/11/18 02:18:54;;;;;;;22.90;10.10;;;;;;;11.52;80.00;100819.66;105900;1256;73659;-85
2023/11/18 02:21:28;;;;;;;21.60;10.50;;;;;;;11.63;79.22;100816.05;106240;1256;67104;-83
2023/11/18 02:23:58;;;;;;;21.90;9.90;;;;;;;11.74;78.29;100821.86;106090;1260;71377;-83
2023/11/18 02:26:26;;;;;;;19.50;10.30;;;;;;;11.83;78.25;100821.36;106176;1257;60345;-83
2023/11/18 02:28:58;;;;;;;21.40;10.80;;;;;;;11.89;77.81;100828.09;106027;1257;60534;-84
2023/11/18 02:31:33;;;;;;;22.20;11.50;;;;;;;11.77;78.32;100827.05;109029;1254;72628;-84
2023/11/18 02:36:36;;;;;;;19.60;9.90;;;;;;;11.72;78.79;100829.37;103203;1291;600910;-84
2023/11/18 02:39:15;;;;;;;22.00;11.10;;;;;;;11.41;80.34;100830.24;105483;1266;59994;-84
2023/11/18 02:41:51;;;;;;;22.60;10.10;;;;;;;11.46;79.94;100830.78;105404;1267;59998;-84
2023/11/18 02:44:32;;;;;;;19.20;9.20;;;;;;;11.48;79.54;100830.30;105477;1267;71070;-83
2023/11/18 02:47:09;;;;;;;22.10;10.80;;;;;;;11.44;79.95;100835.78;105256;1267;67118;-83
2023/11/18 02:49:42;;;;;;;23.90;11.10;;;;;;;11.36;80.42;100832.50;105297;1263;216346;-84
2023/11/18 02:52:14;;;;;;;22.80;10.50;;;;;;;11.43;79.89;100831.89;105557;1264;60822;-83
2023/11/18 02:54:47;;;;;;;21.60;9.80;;;;;;;11.45;79.41;100829.91;105608;1266;60101;-83
2023/11/18 02:57:20;;;;;;;22.20;11.40;;;;;;;11.43;79.65;100830.75;105599;1266;72245;-83
2023/11/18 02:59:52;;;;;;;21.90;10.60;;;;;;;11.46;79.39;100827.13;105627;1264;67332;-84
2023/11/18 03:02:24;;;;;;;22.00;11.30;;;;;;;11.36;80.19;100824.52;105643;1269;72653;-84
2023/11/18 03:04:59;;;;;;;24.10;11.70;;;;;;;11.44;79.14;100825.20;105624;1264;60849;-83
2023/11/18 03:07:29;;;;;;;21.80;11.10;;;;;;;11.35;79.77;100820.14;105538;1263;59544;-83
2023/11/18 03:10:02;;;;;;;22.70;10.10;;;;;;;11.33;80.27;100818.66;105450;1263;73516;-84
2023/11/18 03:12:35;;;;;;;20.80;11.60;;;;;;;11.06;82.08;100820.26;105591;1265;68753;-84
2023/11/18 03:15:09;;;;;;;23.40;10.90;;;;;;;10.97;82.84;100817.63;105561;1266;72617;-84
2023/11/18 03:17:45;;;;;;;20.90;10.70;;;;;;;11.17;82.05;100814.79;105544;1263;59651;-83
2023/11/18 03:20:16;;;;;;;22.20;10.50;;;;;;;11.16;81.35;100818.40;105666;1269;59617;-84
2023/11/18 03:22:51;;;;;;;20.80;10.30;;;;;;;11.19;81.48;100816.54;105506;1266;73082;-86
2023/11/18 03:25:22;;;;;;;21.10;10.70;;;;;;;11.11;82.28;100816.70;105624;1265;67141;-84
2023/11/18 03:27:55;;;;;;;21.10;10.40;;;;;;;11.26;81.13;100821.45;105597;1263;71858;-83
2023/11/18 03:30:22;;;;;;;20.90;10.70;;;;;;;11.14;81.46;100820.42;105598;1266;59730;-84
2023/11/18 03:32:53;;;;;;;21.10;9.90;;;;;;;10.91;83.40;100820.37;105569;1269;59544;-84
2023/11/18 03:35:25;;;;;;;18.40;10.10;;;;;;;11.07;81.95;100823.83;105597;1267;71871;-84
2023/11/18 03:37:53;;;;;;;22.20;10.30;;;;;;;11.04;82.28;100826.93;105771;1269;67233;-83
2023/11/18 03:40:24;;;;;;;20.40;10.10;;;;;;;10.96;82.99;100835.23;106518;1255;72689;-83
2023/11/18 03:42:58;;;;;;;22.30;10.60;;;;;;;10.89;84.05;100838.20;106321;1253;61518;-83
2023/11/18 03:45:31;;;;;;;22.50;10.00;;;;;;;10.90;84.37;100835.73;106379;1253;59967;-84
2023/11/18 03:48:00;;;;;;;22.30;11.10;;;;;;;11.03;83.48;100833.60;106317;1259;73031;-83
2023/11/18 03:50:28;;;;;;;22.20;10.50;;;;;;;10.90;83.85;100831.52;106182;1257;67414;-84
2023/11/18 03:53:03;;;;;;;22.90;12.20;;;;;;;10.50;87.44;100829.54;106328;1253;73283;-84
2023/11/18 03:55:31;;;;;;;24.30;12.20;;;;;;;10.47;88.24;100827.23;106515;1258;60325;-84
2023/11/18 03:57:59;;;;;;;21.60;10.20;;;;;;;10.26;90.00;100825.41;106355;1254;60052;-83
2023/11/18 04:00:33;;;;;;;22.10;10.90;;;;;;;10.41;89.08;100823.79;106336;1254;72207;-83
2023/11/18 04:03:07;;;;;;;24.50;12.50;;;;;;;10.53;88.27;100828.73;106331;1254;68307;-83
2023/11/18 04:05:35;;;;;;;24.30;11.70;;;;;;;10.66;87.88;100834.38;106344;1257;71365;-85
2023/11/18 04:08:07;;;;;;;22.00;10.60;;;;;;;10.71;86.97;100837.52;106271;1253;59724;-84
2023/11/18 04:10:39;;;;;;;;;;;;;;;10.78;86.48;100832.23;106298;1254;60010;-84
2023/11/18 04:13:12;;;;;;;25.10;11.40;;;;;;;10.85;85.99;100827.85;106335;1256;73073;-84
2023/11/18 04:15:40;;;;;;;20.40;10.10;;;;;;;10.92;85.44;100828.58;106282;1254;67131;-84
2023/11/18 04:18:14;;;;;;;24.30;11.40;;;;;;;10.93;85.22;100833.48;106346;1254;72623;-83
2023/11/18 04:20:42;;;;;;;24.20;10.90;;;;;;;10.96;84.70;100834.81;106259;1254;60859;-83
2023/11/18 04:23:16;;;;;;;21.10;10.80;;;;;;;10.95;84.39;100838.59;106293;1252;59500;-83
2023/11/18 04:25:45;;;;;;;21.70;11.10;;;;;;;11.01;83.97;100841.80;106226;1254;72839;-84
2023/11/18 04:28:12;;;;;;;21.70;11.40;;;;;;;11.09;83.31;100843.51;106380;1258;68519;-85
2023/11/18 04:30:46;;;;;;;22.30;12.40;;;;;;;11.10;82.97;100845.36;106361;1254;72977;-84
2023/11/18 04:33:14;;;;;;;20.60;11.40;;;;;;;11.11;83.24;100842.25;106333;1254;59742;-84
2023/11/18 04:35:42;;;;;;;23.30;12.20;;;;;;;11.09;83.02;100842.58;106431;1252;59240;-84
2023/11/18 04:38:09;;;;;;;24.50;11.40;;;;;;;11.05;83.45;100841.70;106295;1254;71821;-83
2023/11/18 04:40:45;;;;;;;22.10;11.60;;;;;;;11.03;83.29;100849.69;106189;1259;68375;-83
2023/11/18 04:43:14;;;;;;;23.50;12.40;;;;;;;10.99;83.53;100852.58;106389;1257;73168;-84
2023/11/18 04:45:50;;;;;;;23.30;11.80;;;;;;;11.10;82.79;100854.13;106331;1253;60921;-84
2023/11/18 04:48:18;;;;;;;19.50;10.40;;;;;;;11.16;81.43;100858.50;106285;1256;59102;-84
2023/11/18 04:50:52;;;;;;;20.40;10.10;;;;;;;10.98;82.58;100857.77;106279;1257;73040;-83
2023/11/18 04:53:25;;;;;;;23.20;12.10;;;;;;;10.86;82.82;100867.48;106307;1258;67154;-83
2023/11/18 04:55:53;;;;;;;20.90;10.20;;;;;;;10.87;82.90;100868.15;106217;1254;72522;-83
2023/11/18 04:58:27;;;;;;;21.20;10.10;;;;;;;10.91;82.20;100865.16;106508;1253;59669;-84
2023/11/18 05:00:54;;;;;;;21.10;10.90;;;;;;;10.73;83.32;100870.70;106408;1254;59975;-83
2023/11/18 05:03:24;;;;;;;19.60;10.40;;;;;;;10.57;84.80;100876.56;106321;1254;73135;-83
2023/11/18 05:05:52;;;;;;;20.30;11.40;;;;;;;10.69;83.99;100877.52;106298;1254;67516;-84
2023/11/18 05:08:31;;;;;;;21.40;10.40;;;;;;;10.64;83.93;100885.17;106377;1254;72350;-84
2023/11/18 05:10:58;;;;;;;17.70;9.90;;;;;;;10.62;84.03;100884.98;106275;1254;59880;-83
2023/11/18 05:13:27;;;;;;;23.10;10.70;;;;;;;10.51;84.80;100899.11;106338;1258;59656;-85
2023/11/18 05:16:01;;;;;;;22.10;11.00;;;;;;;10.57;83.75;100896.61;106335;1254;71787;-85
2023/11/18 05:18:33;;;;;;;19.40;10.70;;;;;;;10.69;82.59;100894.41;106327;1257;68400;-84
2023/11/18 05:21:02;;;;;;;20.50;9.70;;;;;;;10.73;82.14;100900.05;106411;1254;72717;-84
2023/11/18 05:23:30;;;;;;;21.50;10.00;;;;;;;10.78;81.68;100900.21;106233;1254;59652;-85
2023/11/18 05:26:01;;;;;;;18.40;9.40;;;;;;;10.81;80.92;100900.96;106321;1253;60029;-83
2023/11/18 05:28:30;;;;;;;17.40;8.60;;;;;;;10.83;81.07;100905.82;106335;1257;72775;-84
2023/11/18 05:31:04;;;;;;;17.10;9.20;;;;;;;10.79;81.43;100907.34;106291;1259;67695;-83
2023/11/18 05:33:35;;;;;;;18.60;8.60;;;;;;;10.77;81.48;100912.69;106476;1259;72720;-85
2023/11/18 05:36:05;;;;;;;17.70;9.50;;;;;;;10.93;80.31;100910.23;106355;1254;59659;-84
2023/11/18 05:38:35;;;;;;;19.50;9.40;;;;;;;10.95;78.55;100912.19;106284;1259;59544;-84
2023/11/18 05:41:16;;;;;;;18.40;9.20;;;;;;;10.94;78.04;100913.50;106228;1258;72143;-84
2023/11/18 17:43:37;;;;;;;12.00;6.50;;;;;;;9.28;58.48;101153.21;106354;1254;68471;-82
2023/11/18 17:46:11;;;;;;;11.00;5.70;;;;;;;9.29;58.54;101150.08;106367;1254;73363;-82
2023/11/18 17:48:45;;;;;;;11.80;6.30;;;;;;;9.17;58.83;101144.26;106364;1254;61248;-82
2023/11/18 17:51:13;;;;;;;13.90;6.60;;;;;;;9.01;58.97;101139.34;106313;1254;60540;-82
2023/11/18 17:53:47;;;;;;;13.40;6.40;;;;;;;8.93;59.25;101142.61;106393;1254;73801;-82
2023/11/18 17:56:21;;;;;;;12.40;6.40;;;;;;;8.93;59.59;101146.60;106314;1254;70384;-82
2023/11/18 17:58:50;;;;;;;9.30;5.30;;;;;;;8.92;59.58;101147.41;106106;1257;75213;-82
2023/11/18 18:01:24;;;;;;;9.60;5.80;;;;;;;8.94;60.42;101148.45;106317;1254;60414;-82
2023/11/18 18:03:53;;;;;;;15.70;7.10;;;;;;;8.93;60.42;101146.44;106342;1252;62636;-82
2023/11/18 18:06:21;;;;;;;11.60;5.40;;;;;;;9.00;60.05;101142.88;106276;1254;73828;-82
2023/11/18 18:08:49;;;;;;;9.70;5.80;;;;;;;8.92;60.28;101149.70;106348;1257;70317;-83
2023/11/18 18:11:22;;;;;;;11.50;5.90;;;;;;;8.94;60.21;101145.41;106337;1254;71749;-82
2023/11/18 18:13:54;;;;;;;13.70;6.00;;;;;;;8.96;59.57;101146.52;106233;1254;60539;-82
2023/11/18 18:16:28;;;;;;;11.50;5.30;;;;;;;8.98;59.79;101144.11;106344;1253;62074;-82
2023/11/18 18:19:00;;;;;;;11.70;5.60;;;;;;;8.91;60.08;101141.83;106269;1254;73984;-82
2023/11/18 18:21:28;;;;;;;10.40;6.00;;;;;;;8.86;60.36;101143.43;106357;1253;69220;-82
2023/11/18 18:23:56;;;;;;;9.70;5.50;;;;;;;8.80;60.36;101138.95;106270;1254;72674;-82
2023/11/18 18:26:24;;;;;;;9.10;4.80;;;;;;;8.81;59.81;101140.42;106233;1254;61656;-82
2023/11/18 18:28:56;;;;;;;11.30;5.40;;;;;;;8.89;59.12;101137.16;106333;1254;60557;-82
2023/11/18 18:31:26;;;;;;;10.60;5.80;;;;;;;8.83;59.26;101141.50;106310;1256;73836;-82
2023/11/18 18:33:58;;;;;;;12.60;6.40;;;;;;;8.74;59.78;101142.68;106404;1257;70271;-82
2023/11/18 18:36:30;;;;;;;10.60;6.30;;;;;;;8.71;59.92;101144.00;106321;1254;74753;-81
2023/11/18 18:39:03;;;;;;;10.20;5.70;;;;;;;8.59;60.26;101147.52;106467;1254;60575;-82
2023/11/18 18:41:35;;;;;;;;;;;;;;;8.54;60.05;101151.65;106343;1254;60157;-82
2023/11/18 18:44:07;;;;;;;9.70;5.50;;;;;;;8.51;60.36;101153.88;106347;1259;73608;-82
2023/11/18 18:46:40;;;;;;;11.80;6.00;;;;;;;8.59;60.00;101146.59;106411;1254;67242;-82
2023/11/18 18:49:17;;;;;;;11.60;5.50;;;;;;;8.62;60.25;101153.40;106325;1254;75335;-83
2023/11/18 18:51:51;;;;;;;9.40;5.50;;;;;;;8.66;60.15;101148.21;106327;1257;63076;-82
2023/11/18 18:54:23;;;;;;;8.80;4.90;;;;;;;8.61;59.81;101154.86;106336;1253;62197;-82
2023/11/18 18:56:56;;;;;;;8.00;4.30;;;;;;;8.54;59.56;101154.04;106440;1254;73858;-81
2023/11/18 18:59:27;;;;;;;11.50;5.70;;;;;;;8.45;59.94;101159.11;106354;1254;67533;-82
2023/11/18 19:02:00;;;;;;;11.10;6.00;;;;;;;8.41;60.56;101158.55;106412;1254;74531;-82
2023/11/18 19:04:33;;;;;;;9.00;4.90;;;;;;;8.51;60.51;101166.73;106348;1253;60539;-82
2023/11/18 19:07:04;;;;;;;12.20;5.70;;;;;;;8.54;60.32;101168.31;106354;1254;61938;-82
2023/11/18 19:09:36;;;;;;;13.30;6.20;;;;;;;8.56;60.44;101164.53;106286;1257;76036;-83
2023/11/18 19:12:09;;;;;;;11.50;6.60;;;;;;;8.53;60.84;101164.91;106455;1256;70846;-83
2023/11/18 19:14:41;;;;;;;10.20;5.90;;;;;;;8.57;60.43;101166.78;106286;1258;73045;-82
2023/11/18 19:17:13;;;;;;;11.60;5.30;;;;;;;8.53;60.74;101174.34;106286;1254;60527;-82
2023/11/18 19:19:46;;;;;;;10.90;5.30;;;;;;;8.52;60.34;101180.15;106349;1254;60441;-81
2023/11/18 19:22:18;;;;;;;12.60;6.30;;;;;;;8.52;60.36;101190.12;106392;1257;74765;-82
2023/11/18 19:24:51;;;;;;;11.70;6.30;;;;;;;8.42;60.88;101192.13;106380;1254;71049;-82
2023/11/18 19:27:23;;;;;;;;;;;;;;;8.42;61.14;101190.05;106372;1254;74857;-82
2023/11/18 19:29:56;;;;;;;14.00;8.90;;;;;;;8.39;61.08;101190.42;106364;1254;63159;-81
2023/11/18 19:32:28;;;;;;;9.70;5.20;;;;;;;8.27;60.98;101197.45;106539;1253;62149;-83
2023/11/18 19:34:59;;;;;;;10.00;5.20;;;;;;;8.37;60.63;101198.55;106325;1254;76487;-83
2023/11/18 19:37:33;;;;;;;13.30;5.80;;;;;;;8.49;60.83;101199.83;106366;1254;69885;-82
2023/11/18 19:40:06;;;;;;;10.90;5.60;;;;;;;8.51;60.05;101199.25;106235;1254;71615;-82
2023/11/18 19:42:39;;;;;;;12.90;6.90;;;;;;;8.48;60.04;101202.21;106332;1257;60440;-83
2023/11/18 19:45:12;;;;;;;10.40;5.90;;;;;;;8.42;60.26;101202.98;106478;1255;60414;-83
2023/11/18 19:47:44;;;;;;;13.30;6.70;;;;;;;8.37;60.54;101205.00;106475;1253;73826;-82
2023/11/18 19:50:16;;;;;;;8.60;4.60;;;;;;;8.43;60.13;101201.69;106426;1254;70163;-83
2023/11/18 19:52:51;;;;;;;10.90;5.90;;;;;;;8.53;59.98;101196.58;106368;1253;74747;-82
2023/11/18 19:55:22;;;;;;;11.20;6.50;;;;;;;8.44;59.87;101188.86;106332;1254;60332;-81
2023/11/18 19:57:54;;;;;;;10.80;5.40;;;;;;;8.36;60.75;101189.72;106535;1253;60900;-81
2023/11/18 20:00:26;;;;;;;9.10;5.00;;;;;;;8.44;60.19;101184.04;106471;1257;72697;-81
2023/11/18 20:02:59;;;;;;;11.60;6.60;;;;;;;8.52;60.04;101182.92;106423;1257;67504;-82
2023/11/18 20:05:33;;;;;;;10.30;5.70;;;;;;;8.53;59.70;101181.59;106822;1254;74878;-82
2023/11/18 20:08:07;;;;;;;10.30;6.00;;;;;;;8.47;60.02;101182.14;106405;1253;60936;-83
2023/11/18 20:10:38;;;;;;;9.50;5.90;;;;;;;8.41;60.21;101181.97;106410;1254;60505;-80
2023/11/18 20:13:11;;;;;;;10.50;5.30;;;;;;;8.42;60.42;101188.32;106465;1253;73848;-80
2023/11/18 20:15:42;;;;;;;8.40;5.20;;;;;;;8.43;60.13;101190.84;106344;1253;71112;-80
2023/11/18 20:18:15;;;;;;;10.60;6.30;;;;;;;8.40;60.14;101187.17;106394;1259;71772;-80
2023/11/18 20:20:47;;;;;;;10.70;6.10;;;;;;;8.30;60.35;101184.92;106469;1253;61200;-79
2023/11/18 20:23:21;;;;;;;13.10;6.40;;;;;;;8.18;61.27;101185.43;106435;1253;61157;-79
2023/11/18 20:25:53;;;;;;;9.70;5.40;;;;;;;8.15;61.62;101186.27;106813;1253;73854;-80
2023/11/18 20:28:26;;;;;;;11.60;6.60;;;;;;;8.25;61.27;101183.21;106314;1256;70748;-80
2023/11/18 20:30:59;;;;;;;10.90;6.20;;;;;;;8.30;61.29;101181.39;106333;1253;73580;-80
2023/11/18 20:33:31;;;;;;;11.20;5.80;;;;;;;8.39;60.52;101182.88;106451;1254;60419;-80
2023/11/18 20:36:06;;;;;;;14.10;5.90;;;;;;;8.44;60.27;101178.13;106433;1253;60357;-80
2023/11/18 20:38:34;;;;;;;10.10;5.70;;;;;;;8.47;60.35;101172.62;106375;1254;73850;-80
2023/11/18 20:41:07;;;;;;;11.90;5.90;;;;;;;8.44;60.39;101171.90;106485;1254;70973;-80
2023/11/18 20:43:35;;;;;;;12.80;6.70;;;;;;;8.43;60.28;101165.52;106589;1254;74851;-80
2023/11/18 20:46:12;;;;;;;9.60;5.00;;;;;;;8.39;60.41;101170.95;106617;1254;60503;-83
2023/11/18 20:48:40;;;;;;;11.20;6.00;;;;;;;8.52;59.87;101165.83;106540;1253;62007;-82
2023/11/18 20:51:14;;;;;;;13.50;6.70;;;;;;;8.45;59.79;101167.46;106494;1253;73821;-82
2023/11/18 20:53:42;;;;;;;10.70;5.50;;;;;;;8.48;59.92;101162.94;106634;1254;70757;-82
2023/11/18 20:56:16;;;;;;;9.50;5.80;;;;;;;8.71;59.11;101161.43;106682;1253;74938;-83
2023/11/18 20:58:47;;;;;;;10.40;5.90;;;;;;;8.82;58.69;101153.74;106536;1254;60440;-84
2023/11/18 21:01:16;;;;;;;11.60;5.80;;;;;;;8.67;59.13;101156.80;106474;1253;60543;-84
2023/11/18 21:03:43;;;;;;;11.70;6.30;;;;;;;8.55;59.38;101163.84;106886;1252;72800;-83
2023/11/18 21:06:12;;;;;;;10.70;6.40;;;;;;;8.56;59.38;101166.09;106677;1257;68339;-83
2023/11/18 21:08:48;;;;;;;12.60;6.20;;;;;;;8.46;60.06;101168.33;106491;1254;72743;-84
2023/11/18 21:11:17;;;;;;;10.70;6.90;;;;;;;8.46;60.33;101168.56;106424;1254;61961;-84
2023/11/18 21:13:46;;;;;;;11.40;6.30;;;;;;;8.43;60.80;101165.56;106634;1254;60537;-84
2023/11/18 21:16:18;;;;;;;10.00;5.10;;;;;;;8.37;60.80;101163.45;106792;1253;72546;-84
2023/11/18 21:18:50;;;;;;;10.40;6.60;;;;;;;8.28;61.03;101162.45;106729;1253;68445;-83
2023/11/18 21:21:22;;;;;;;11.20;5.90;;;;;;;8.32;60.79;101164.60;106556;1256;72605;-81
2023/11/18 21:23:54;;;;;;;10.80;6.20;;;;;;;8.35;61.10;101161.33;106369;1254;60584;-81
2023/11/18 21:26:31;;;;;;;9.00;5.90;;;;;;;8.33;61.24;101160.09;106526;1253;60517;-81
2023/11/18 21:28:59;;;;;;;10.70;5.70;;;;;;;8.37;61.15;101157.28;106772;1254;73794;-81
2023/11/18 21:31:31;;;;;;;11.90;6.30;;;;;;;8.34;61.16;101156.30;106791;1254;68496;-80
2023/11/18 21:34:04;;;;;;;12.80;6.30;;;;;;;8.36;61.28;101154.71;106565;1254;72651;-81
2023/11/18 21:36:37;;;;;;;13.30;6.90;;;;;;;8.34;61.38;101146.92;106500;1254;60553;-81
2023/11/18 21:39:13;;;;;;;17.20;8.00;;;;;;;8.25;61.95;101146.89;106685;1252;60533;-81
2023/11/18 21:41:49;;;;;;;10.60;6.60;;;;;;;8.04;62.77;101142.04;106540;1256;72891;-81
2023/11/18 21:44:26;;;;;;;11.30;6.20;;;;;;;8.02;63.44;101137.85;106381;1254;68426;-81
2023/11/18 21:47:10;;;;;;;8.60;5.70;;;;;;;7.99;63.62;101131.48;106482;1254;71459;-81
2023/11/18 21:49:51;;;;;;;10.70;6.50;;;;;;;7.91;64.07;101131.23;106545;1254;60972;-82
2023/11/18 21:52:34;;;;;;;11.60;5.90;;;;;;;7.97;64.21;101133.67;106525;1253;60428;-81
2023/11/18 21:55:14;;;;;;;12.50;6.50;;;;;;;8.06;63.57;101130.56;106458;1254;73909;-81
2023/11/18 21:57:54;;;;;;;10.80;6.20;;;;;;;8.03;64.13;101127.24;106464;1253;67737;-81
2023/11/18 22:00:34;;;;;;;11.20;6.70;;;;;;;8.02;63.95;101125.65;106528;1254;71472;-81
2023/11/18 22:03:24;;;;;;;11.00;6.80;;;;;;;8.10;63.08;101128.46;106646;1254;60418;-81
2023/11/18 22:06:04;;;;;;;10.30;6.20;;;;;;;8.16;62.95;101122.73;106390;1253;60307;-82
2023/11/18 22:08:46;;;;;;;9.80;6.40;;;;;;;8.18;62.79;101122.55;106506;1253;74374;-81
2023/11/18 22:11:28;;;;;;;11.50;6.40;;;;;;;8.21;62.65;101121.08;106324;1253;68475;-81
2023/11/18 22:14:15;;;;;;;11.90;7.00;;;;;;;8.21;62.37;101121.23;106579;1253;70826;-81
2023/11/18 22:16:55;;;;;;;12.60;7.50;;;;;;;8.20;62.31;101122.08;106461;1253;61252;-81
2023/11/18 22:19:40;;;;;;;11.00;5.20;;;;;;;8.21;62.24;101120.52;106316;1254;60444;-81
2023/11/18 22:22:20;;;;;;;12.10;6.90;;;;;;;8.14;63.03;101115.67;106424;1256;73940;-81
2023/11/18 22:25:00;;;;;;;11.20;6.20;;;;;;;8.00;63.58;101114.79;106350;1254;68449;-81
2023/11/18 22:27:40;;;;;;;11.50;6.70;;;;;;;8.00;64.14;101113.33;106386;1257;72617;-80
2023/11/18 22:30:23;;;;;;;16.20;7.40;;;;;;;8.05;64.01;101112.96;106404;1258;60351;-83
2023/11/18 22:33:05;;;;;;;11.30;6.70;;;;;;;8.02;64.44;101106.91;106544;1254;60540;-80
2023/11/18 22:35:49;;;;;;;10.50;6.60;;;;;;;7.92;64.25;101099.69;106329;1256;73867;-82
2023/11/18 22:38:29;;;;;;;10.50;6.10;;;;;;;7.99;63.77;101085.49;106564;1254;69499;-80
2023/11/18 22:41:11;;;;;;;13.90;7.80;;;;;;;7.93;63.26;101076.34;106390;1254;72651;-80
2023/11/18 22:43:53;;;;;;;10.70;6.80;;;;;;;7.93;63.35;101075.59;106395;1254;60542;-80
2023/11/18 22:46:37;;;;;;;11.90;6.80;;;;;;;7.99;63.10;101079.27;106714;1254;60331;-81
2023/11/18 22:49:18;;;;;;;13.00;6.80;;;;;;;7.99;62.83;101085.38;106372;1252;74149;-81
2023/11/18 22:51:59;;;;;;;12.60;6.40;;;;;;;7.99;62.85;101088.25;106490;1254;67236;-80
2023/11/18 22:54:38;;;;;;;11.80;6.80;;;;;;;8.04;62.74;101093.89;106375;1254;70839;-80
2023/11/18 22:57:19;;;;;;;12.50;7.80;;;;;;;7.94;63.56;101097.63;106451;1253;60418;-80
2023/11/18 22:59:59;;;;;;;12.90;7.20;;;;;;;7.85;64.44;101098.08;106349;1256;60405;-80
2023/11/18 23:02:40;;;;;;;12.50;7.00;;;;;;;7.89;64.42;101100.33;106509;1254;74327;-82
2023/11/18 23:05:25;;;;;;;12.00;6.80;;;;;;;7.96;64.06;101101.77;106359;1253;67080;-80
2023/11/18 23:08:07;;;;;;;11.20;6.80;;;;;;;8.04;63.94;101105.22;106294;1254;72478;-80
2023/11/18 23:10:48;;;;;;;11.50;6.70;;;;;;;8.08;63.43;101108.98;106462;1254;60546;-80
2023/11/18 23:13:30;;;;;;;13.60;7.00;;;;;;;7.93;64.24;101108.79;106757;1256;61623;-80
2023/11/18 23:16:13;;;;;;;12.00;6.80;;;;;;;7.92;64.67;101112.73;106398;1256;73840;-82
2023/11/18 23:18:55;;;;;;;13.30;7.20;;;;;;;7.95;64.42;101111.05;106464;1253;68684;-82
2023/11/18 23:21:35;;;;;;;13.70;7.80;;;;;;;7.97;64.31;101102.71;106427;1254;72728;-81
2023/11/18 23:24:15;;;;;;;12.50;7.40;;;;;;;7.98;64.27;101100.27;106722;1254;60867;-79
2023/11/18 23:26:55;;;;;;;11.30;6.40;;;;;;;7.83;64.49;101096.80;106419;1253;60338;-81
2023/11/18 23:29:35;;;;;;;9.70;6.60;;;;;;;7.89;64.07;101098.05;106353;1253;74232;-81
2023/11/18 23:32:15;;;;;;;11.70;6.40;;;;;;;7.87;63.62;101099.05;106565;1254;67628;-80
2023/11/18 23:34:57;;;;;;;14.50;7.20;;;;;;;7.83;64.13;101103.70;106429;1254;72650;-82
2023/11/18 23:37:37;;;;;;;10.40;6.60;;;;;;;7.89;63.98;101106.96;106355;1254;60896;-82
2023/11/18 23:40:19;;;;;;;12.60;6.50;;;;;;;8.01;63.31;101104.42;106238;1254;60322;-82
2023/11/18 23:42:59;;;;;;;12.50;7.60;;;;;;;8.01;63.12;101105.98;106407;1252;73830;-80
2023/11/18 23:45:41;;;;;;;11.40;6.30;;;;;;;7.96;63.14;101107.98;106458;1254;68503;-80
2023/11/18 23:48:21;;;;;;;11.00;6.40;;;;;;;8.04;63.18;101105.65;106228;1254;71462;-82
2023/11/18 23:51:01;;;;;;;10.60;6.90;;;;;;;8.11;62.81;101109.03;106348;1252;60440;-82
2023/11/18 23:53:40;;;;;;;11.50;6.90;;;;;;;8.17;62.12;101107.17;106345;1254;60481;-80
2023/11/18 23:56:21;;;;;;;13.30;7.40;;;;;;;8.19;61.41;101106.19;106444;1254;73842;-80
2023/11/18 23:59:00;;;;;;;13.30;7.50;;;;;;;8.25;60.73;101109.95;106353;1251;68415;-79
